Time;durP1;ratioP1;P1;durP2;ratioP2;P2;SDS_P1;SDS_P2;PMS_P1;PMS_P2;Temp;Humidity;BMP_temperature;BMP_pressure;BME280_temperature;BME280_humidity;BME280_pressure;Samples;Min_cycle;Max_cycle;Signal;HPM_P1;HPM_P2
2021/12/16 00:34:37;;;;;;;18.65;8.38;;;;;;;;;;10269241;23;20066;-77
2021/12/16 00:40:27;;;;;;;15.68;7.90;;;;;;;;;;10280041;28;20047;-77
2021/12/16 00:46:58;;;;;;;17.23;7.80;;;;;;;;;;10140052;29;20447;-77
2021/12/16 00:57:49;;;;;;;14.15;7.28;;;;;;;;;;10190490;29;20514;-77
2021/12/16 01:03:16;;;;;;;13.90;8.13;;;;;;;;;;10177540;29;20044;-77
2021/12/16 02:37:54;;;;;;;11.05;6.97;;;;;;;;;;10200813;29;20494;-76
2021/12/16 02:49:41;;;;;;;10.40;6.57;;;;;;;;;;10155575;29;20051;-76
2021/12/16 02:55:37;;;;;;;11.75;6.47;;;;;;;;;;10162120;29;20044;-76
2021/12/16 03:38:09;;;;;;;9.13;5.82;;;;;;;;;;9795053;30;20417;-77
2021/12/16 03:49:43;;;;;;;;;;;;;;;;;;9833322;30;20055;-78
2021/12/16 03:56:01;;;;;;;8.57;4.95;;;;;;;;;;9828642;30;19926;-77
2021/12/16 04:08:08;;;;;;;7.60;5.75;;;;;;;;;;9792999;30;20052;-78
2021/12/16 04:25:54;;;;;;;9.25;5.32;;;;;;;;;;9722739;30;20049;-76
2021/12/16 04:56:01;;;;;;;10.35;5.15;;;;;;;;;;10092383;29;20057;-78
2021/12/16 05:08:20;;;;;;;7.68;5.20;;;;;;;;;;10016541;29;20054;-77
2021/12/16 05:14:19;;;;;;;7.38;5.22;;;;;;;;;;10034359;29;20057;-78
2021/12/16 06:08:25;;;;;;;5.60;4.45;;;;;;;;;;9923659;29;20062;-78
2021/12/16 06:38:21;;;;;;;5.70;4.93;;;;;;;;;;9906336;29;20055;-77
2021/12/16 06:44:01;;;;;;;5.13;4.60;;;;;;;;;;9891816;30;20079;-77
2021/12/16 06:49:49;;;;;;;7.40;4.25;;;;;;;;;;9881666;29;20086;-77
2021/12/16 07:06:34;;;;;;;8.40;4.88;;;;;;;;;;10123675;29;20047;-78
2021/12/16 07:11:40;;;;;;;10.30;5.10;;;;;;;;;;10253344;28;20073;-79
2021/12/16 07:16:46;;;;;;;14.25;5.63;;;;;;;;;;10252555;29;22349;-78
2021/12/16 07:21:47;;;;;;;6.35;4.70;;;;;;;;;;10253941;29;20058;-79
2021/12/16 07:26:49;;;;;;;15.68;4.60;;;;;;;;;;10254000;28;20065;-80
2021/12/16 07:31:49;;;;;;;21.55;5.15;;;;;;;;;;10252159;28;20537;-79
2021/12/16 07:36:51;;;;;;;13.57;5.45;;;;;;;;;;10252479;29;20135;-80
2021/12/16 07:42:41;;;;;;;10.95;5.15;;;;;;;;;;10249073;28;20146;-80
2021/12/16 07:48:05;;;;;;;10.50;5.30;;;;;;;;;;10285480;28;20102;-80
2021/12/16 07:53:36;;;;;;;10.57;4.43;;;;;;;;;;10250220;29;20059;-79
2021/12/16 07:59:22;;;;;;;9.77;5.03;;;;;;;;;;10249685;28;20049;-79
2021/12/16 08:05:14;;;;;;;14.30;5.45;;;;;;;;;;10250656;29;20149;-78
2021/12/16 08:10:36;;;;;;;20.83;5.22;;;;;;;;;;10208586;29;20123;-79
2021/12/16 08:15:38;;;;;;;10.13;5.07;;;;;;;;;;10209292;29;20442;-80
2021/12/16 08:20:39;;;;;;;25.75;6.38;;;;;;;;;;10209296;29;20059;-80
2021/12/16 08:25:40;;;;;;;20.98;5.70;;;;;;;;;;10209418;29;20187;-80
2021/12/16 08:30:44;;;;;;;23.67;6.05;;;;;;;;;;10208996;29;20518;-80
2021/12/16 08:35:49;;;;;;;24.17;6.43;;;;;;;;;;10208737;29;20612;-79
2021/12/16 08:40:52;;;;;;;24.60;5.95;;;;;;;;;;10220353;29;20421;-80
2021/12/16 08:45:55;;;;;;;22.83;6.72;;;;;;;;;;10232531;29;20059;-80
2021/12/16 08:51:09;;;;;;;24.52;7.30;;;;;;;;;;10212581;29;20538;-80
2021/12/16 08:56:21;;;;;;;18.70;5.95;;;;;;;;;;10210868;29;20378;-80
2021/12/16 09:01:28;;;;;;;17.40;6.90;;;;;;;;;;10172656;29;20044;-80
2021/12/16 09:06:36;;;;;;;20.70;6.80;;;;;;;;;;10185268;29;20074;-83
2021/12/16 09:12:09;;;;;;;25.00;7.63;;;;;;;;;;10191951;29;20051;-81
2021/12/16 09:17:21;;;;;;;30.13;6.65;;;;;;;;;;10215685;29;20039;-81
2021/12/16 09:22:33;;;;;;;15.55;5.97;;;;;;;;;;10219226;29;20035;-81
2021/12/16 09:27:36;;;;;;;16.10;7.93;;;;;;;;;;10209634;29;20054;-81
2021/12/16 09:32:39;;;;;;;17.58;7.40;;;;;;;;;;10217023;29;20055;-79
2021/12/16 09:37:43;;;;;;;15.93;6.45;;;;;;;;;;10210297;29;20083;-82
2021/12/16 09:42:49;;;;;;;21.25;6.75;;;;;;;;;;10194100;29;20056;-81
2021/12/16 09:47:53;;;;;;;17.92;6.15;;;;;;;;;;10253523;29;20051;-80
2021/12/16 09:52:57;;;;;;;16.77;7.00;;;;;;;;;;10244058;29;20055;-80
2021/12/16 09:58:04;;;;;;;15.20;7.88;;;;;;;;;;10257743;29;20054;-80
2021/12/16 10:03:06;;;;;;;14.80;6.25;;;;;;;;;;10255774;29;20047;-80
2021/12/16 10:08:09;;;;;;;13.15;6.00;;;;;;;;;;10257724;29;20031;-80
2021/12/16 10:13:11;;;;;;;17.45;6.90;;;;;;;;;;10259581;29;20038;-81
2021/12/16 10:18:15;;;;;;;17.90;7.22;;;;;;;;;;10260369;29;20045;-82
2021/12/16 10:23:21;;;;;;;14.02;5.82;;;;;;;;;;10258293;28;20079;-80
2021/12/16 10:28:26;;;;;;;13.88;6.65;;;;;;;;;;10240259;29;20553;-80
2021/12/16 10:33:26;;;;;;;16.83;7.10;;;;;;;;;;10257317;29;20054;-79
2021/12/16 10:38:26;;;;;;;14.47;6.80;;;;;;;;;;10257272;29;20061;-78
2021/12/16 10:43:48;;;;;;;15.38;6.60;;;;;;;;;;10256540;29;20442;-79
2021/12/16 10:49:00;;;;;;;15.98;6.45;;;;;;;;;;10255662;29;20434;-78
2021/12/16 10:54:14;;;;;;;12.63;6.10;;;;;;;;;;10255977;29;20393;-78
2021/12/16 10:59:40;;;;;;;12.23;5.63;;;;;;;;;;10255764;29;20496;-78
2021/12/16 11:05:01;;;;;;;12.95;6.47;;;;;;;;;;10256243;29;20054;-78
2021/12/16 11:10:18;;;;;;;11.68;6.22;;;;;;;;;;10256033;29;20027;-78
2021/12/16 11:15:38;;;;;;;9.80;5.57;;;;;;;;;;10228604;29;20043;-79
2021/12/16 11:20:46;;;;;;;10.18;5.75;;;;;;;;;;10219524;29;20031;-79
2021/12/16 11:26:03;;;;;;;8.88;5.82;;;;;;;;;;10215618;29;20378;-79
2021/12/16 11:31:18;;;;;;;11.85;6.00;;;;;;;;;;10220895;29;20118;-79
2021/12/16 11:36:22;;;;;;;11.93;5.82;;;;;;;;;;10246880;28;20028;-79
2021/12/16 11:41:23;;;;;;;9.50;5.70;;;;;;;;;;10247013;29;20034;-79
2021/12/16 11:46:37;;;;;;;13.07;6.00;;;;;;;;;;10254005;28;20055;-79
2021/12/16 11:51:42;;;;;;;11.77;5.53;;;;;;;;;;10288739;28;20047;-79
2021/12/16 11:56:50;;;;;;;8.10;5.50;;;;;;;;;;10277495;28;20528;-79
2021/12/16 12:01:53;;;;;;;13.65;5.25;;;;;;;;;;10281888;28;20762;-79
2021/12/16 12:07:19;;;;;;;10.15;5.53;;;;;;;;;;10257661;28;20046;-79
2021/12/16 12:12:58;;;;;;;9.65;5.38;;;;;;;;;;10269531;28;20051;-80
2021/12/16 12:18:21;;;;;;;9.15;5.20;;;;;;;;;;10234875;28;20050;-80
2021/12/16 12:23:26;;;;;;;9.85;5.68;;;;;;;;;;10242762;29;20043;-80
2021/12/16 12:28:28;;;;;;;10.32;5.20;;;;;;;;;;10250873;29;20035;-83
2021/12/16 12:38:40;;;;;;;10.13;5.35;;;;;;;;;;10110793;26;20098;-82
2021/12/16 12:43:40;;;;;;;10.23;5.30;;;;;;;;;;10196498;29;20123;-83
2021/12/16 12:48:42;;;;;;;11.85;5.20;;;;;;;;;;10223346;29;20417;-82
2021/12/16 12:53:50;;;;;;;12.68;5.25;;;;;;;;;;10206721;29;20064;-82
2021/12/16 12:59:11;;;;;;;10.32;5.68;;;;;;;;;;10221726;29;20087;-82
2021/12/16 13:04:23;;;;;;;8.05;4.95;;;;;;;;;;10220769;29;20043;-82
2021/12/16 13:09:49;;;;;;;12.45;5.90;;;;;;;;;;10220926;29;20031;-82
2021/12/16 13:14:52;;;;;;;10.02;5.10;;;;;;;;;;10201874;29;20116;-82
2021/12/16 13:31:03;;;;;;;10.13;5.57;;;;;;;;;;10228715;29;20470;-82
2021/12/16 13:36:07;;;;;;;9.55;5.38;;;;;;;;;;10210479;29;20051;-79
2021/12/16 13:41:11;;;;;;;8.23;5.22;;;;;;;;;;10218748;29;20035;-79
2021/12/16 13:46:38;;;;;;;10.13;4.85;;;;;;;;;;10200926;29;20039;-80
2021/12/16 14:02:47;;;;;;;21.98;5.03;;;;;;;;;;10201351;29;20478;-82
2021/12/16 14:07:57;;;;;;;25.25;5.00;;;;;;;;;;10217995;29;20208;-84
2021/12/16 14:24:29;;;;;;;19.50;5.90;;;;;;;;;;10188192;29;20044;-79
2021/12/16 14:45:27;;;;;;;12.57;4.65;;;;;;;;;;10184272;29;20047;-77
2021/12/16 14:50:33;;;;;;;11.18;3.90;;;;;;;;;;10216032;29;20039;-77
2021/12/16 14:55:33;;;;;;;15.55;4.90;;;;;;;;;;10216914;29;20031;-77
2021/12/16 15:00:42;;;;;;;9.38;4.07;;;;;;;;;;10216489;29;20035;-77
2021/12/16 15:05:54;;;;;;;8.23;4.20;;;;;;;;;;10216165;29;20040;-77
2021/12/16 15:10:57;;;;;;;8.70;4.22;;;;;;;;;;10216048;29;20035;-77
2021/12/16 15:16:35;;;;;;;10.30;4.05;;;;;;;;;;10215542;29;20047;-77
2021/12/16 15:38:48;;;;;;;5.93;3.90;;;;;;;;;;10092880;29;20111;-76
2021/12/16 15:43:55;;;;;;;6.70;3.40;;;;;;;;;;10165559;29;20430;-75
2021/12/16 15:48:55;;;;;;;6.10;3.47;;;;;;;;;;10170838;29;20048;-76
2021/12/16 15:53:58;;;;;;;10.02;4.57;;;;;;;;;;10168673;29;20054;-76
2021/12/16 15:59:02;;;;;;;8.57;4.03;;;;;;;;;;10168879;29;20044;-76
2021/12/16 16:04:06;;;;;;;9.00;4.03;;;;;;;;;;10139474;29;20072;-78
2021/12/16 16:09:10;;;;;;;5.45;3.33;;;;;;;;;;10160886;29;20457;-76
2021/12/16 16:14:11;;;;;;;7.65;4.22;;;;;;;;;;10174402;29;20046;-75
2021/12/16 16:19:16;;;;;;;10.52;3.80;;;;;;;;;;10172724;29;20062;-76
2021/12/16 16:24:21;;;;;;;10.02;4.22;;;;;;;;;;10187651;29;20389;-75
2021/12/16 16:29:25;;;;;;;9.55;3.95;;;;;;;;;;10212950;29;20039;-75
2021/12/16 16:34:30;;;;;;;8.57;4.40;;;;;;;;;;10210787;29;20118;-76
2021/12/16 16:39:34;;;;;;;13.65;4.85;;;;;;;;;;10187098;29;20490;-76
2021/12/16 16:44:35;;;;;;;8.60;4.45;;;;;;;;;;10184307;29;20027;-75
2021/12/16 16:49:47;;;;;;;9.82;4.32;;;;;;;;;;10178942;29;20028;-76
2021/12/16 16:54:50;;;;;;;11.88;4.47;;;;;;;;;;10173024;29;20048;-76
2021/12/16 16:59:54;;;;;;;24.52;4.80;;;;;;;;;;10173421;29;20485;-76
2021/12/16 17:05:11;;;;;;;14.40;3.88;;;;;;;;;;10172740;29;20044;-77
2021/12/16 17:10:27;;;;;;;14.00;4.40;;;;;;;;;;10191173;29;20107;-77
2021/12/16 17:15:38;;;;;;;15.32;4.28;;;;;;;;;;10173435;29;20657;-77
2021/12/16 17:20:38;;;;;;;13.77;4.07;;;;;;;;;;10161811;29;20060;-77
2021/12/16 17:25:39;;;;;;;9.00;4.45;;;;;;;;;;10172286;29;20041;-77
2021/12/16 17:30:41;;;;;;;15.48;4.32;;;;;;;;;;10175727;29;20040;-76
2021/12/16 17:35:44;;;;;;;8.88;4.22;;;;;;;;;;10179983;29;20067;-77
2021/12/16 17:41:12;;;;;;;11.93;4.00;;;;;;;;;;10180429;29;20040;-77
2021/12/16 17:46:15;;;;;;;18.60;4.40;;;;;;;;;;10188180;29;20050;-77
2021/12/16 17:51:18;;;;;;;7.38;4.13;;;;;;;;;;10210241;29;20531;-75
2021/12/16 17:56:21;;;;;;;18.35;4.97;;;;;;;;;;10195654;29;20042;-75
2021/12/16 18:01:32;;;;;;;13.95;5.32;;;;;;;;;;10208780;29;20036;-76
2021/12/16 18:06:39;;;;;;;16.40;6.78;;;;;;;;;;10205538;29;20455;-76
2021/12/16 18:11:44;;;;;;;15.57;6.38;;;;;;;;;;10207995;29;20053;-76
2021/12/16 18:16:49;;;;;;;10.95;5.53;;;;;;;;;;10193678;29;20482;-76
2021/12/16 18:21:51;;;;;;;11.13;5.72;;;;;;;;;;10226236;29;20134;-76
2021/12/16 18:26:52;;;;;;;10.82;5.72;;;;;;;;;;10218894;29;20393;-76
2021/12/16 18:31:54;;;;;;;13.68;6.18;;;;;;;;;;10217548;29;20131;-76
2021/12/16 18:36:58;;;;;;;14.07;6.10;;;;;;;;;;10214479;29;20055;-77
2021/12/16 18:42:11;;;;;;;12.07;6.50;;;;;;;;;;10201968;29;20074;-76
2021/12/16 18:47:23;;;;;;;12.07;6.85;;;;;;;;;;10183276;29;20040;-76
2021/12/16 18:52:34;;;;;;;12.68;7.25;;;;;;;;;;10182422;29;20036;-76
2021/12/16 18:57:35;;;;;;;18.55;7.65;;;;;;;;;;10180650;29;20040;-76
2021/12/16 19:02:37;;;;;;;13.30;8.43;;;;;;;;;;10213945;29;20042;-76
2021/12/16 19:07:37;;;;;;;24.55;9.40;;;;;;;;;;10215605;29;20051;-76
2021/12/16 19:12:39;;;;;;;15.38;9.25;;;;;;;;;;10214875;29;20035;-77
2021/12/16 19:17:48;;;;;;;19.77;10.93;;;;;;;;;;10216228;29;20558;-76
2021/12/16 19:22:49;;;;;;;67.47;34.20;;;;;;;;;;10199344;29;20158;-76
2021/12/16 19:27:50;;;;;;;69.68;36.17;;;;;;;;;;10199114;29;20126;-75
2021/12/16 19:32:51;;;;;;;60.50;31.88;;;;;;;;;;10211968;29;20041;-75
2021/12/16 19:37:54;;;;;;;60.30;32.78;;;;;;;;;;10192457;29;20051;-76
2021/12/16 19:42:58;;;;;;;59.78;30.60;;;;;;;;;;10214166;29;20497;-75
2021/12/16 19:47:59;;;;;;;62.80;31.23;;;;;;;;;;10196761;29;20815;-75
2021/12/16 19:53:00;;;;;;;63.05;31.63;;;;;;;;;;10213746;29;20051;-75
2021/12/16 19:58:06;;;;;;;58.50;30.13;;;;;;;;;;10209740;29;20039;-75
2021/12/16 20:03:08;;;;;;;61.88;28.52;;;;;;;;;;10213958;29;20040;-75
2021/12/16 20:08:10;;;;;;;68.03;29.58;;;;;;;;;;10213937;29;20131;-75
2021/12/16 20:13:13;;;;;;;58.22;29.23;;;;;;;;;;10211054;29;20545;-75
2021/12/16 20:18:16;;;;;;;60.22;28.05;;;;;;;;;;10210732;29;20042;-75
2021/12/16 20:23:17;;;;;;;47.20;26.50;;;;;;;;;;10213028;29;20114;-76
2021/12/16 20:28:20;;;;;;;48.45;25.45;;;;;;;;;;10211882;29;20106;-76
2021/12/16 20:33:23;;;;;;;47.25;24.92;;;;;;;;;;10211241;29;20058;-75
2021/12/16 20:38:32;;;;;;;46.80;23.83;;;;;;;;;;10204476;29;20051;-76
2021/12/16 20:43:39;;;;;;;44.42;22.20;;;;;;;;;;10209578;29;20032;-76
2021/12/16 20:48:45;;;;;;;50.40;22.02;;;;;;;;;;10211988;29;20115;-76
2021/12/16 20:53:50;;;;;;;45.83;21.90;;;;;;;;;;10198092;29;20087;-76
2021/12/16 20:59:00;;;;;;;43.75;21.88;;;;;;;;;;10188625;29;20047;-76
2021/12/16 21:04:05;;;;;;;40.40;22.00;;;;;;;;;;10211169;29;20050;-76
2021/12/16 21:09:06;;;;;;;46.75;20.27;;;;;;;;;;10201576;29;20051;-76
2021/12/16 21:14:08;;;;;;;45.55;20.58;;;;;;;;;;10218436;29;20044;-76
2021/12/16 21:19:13;;;;;;;38.80;19.55;;;;;;;;;;10217047;29;20047;-76
2021/12/16 21:24:14;;;;;;;38.13;20.17;;;;;;;;;;10215333;29;20435;-76
2021/12/16 21:29:16;;;;;;;44.15;19.15;;;;;;;;;;10193933;29;20082;-76
2021/12/16 21:34:31;;;;;;;37.53;18.15;;;;;;;;;;10219403;23;20524;-88
2021/12/16 21:39:31;;;;;;;31.02;17.65;;;;;;;;;;10218633;29;20401;-89
2021/12/16 21:44:31;;;;;;;31.63;15.77;;;;;;;;;;10230193;29;20027;-88
2021/12/16 21:49:32;;;;;;;29.48;17.10;;;;;;;;;;10227684;29;20043;-88
2021/12/16 21:54:32;;;;;;;28.80;15.95;;;;;;;;;;10237079;29;20032;-86
2021/12/16 21:59:33;;;;;;;32.67;18.02;;;;;;;;;;10241265;29;20400;-85
2021/12/16 22:04:33;;;;;;;34.22;17.27;;;;;;;;;;10247486;29;20038;-86
2021/12/16 22:09:33;;;;;;;30.63;16.37;;;;;;;;;;10244401;29;20497;-85
2021/12/16 22:14:34;;;;;;;26.52;14.65;;;;;;;;;;10219159;29;20453;-87
2021/12/16 22:19:34;;;;;;;26.52;15.38;;;;;;;;;;10214953;28;20514;-85
2021/12/16 22:24:35;;;;;;;27.95;15.40;;;;;;;;;;10213168;29;20043;-86
2021/12/16 22:29:35;;;;;;;28.23;15.98;;;;;;;;;;10223942;29;20043;-85
2021/12/16 22:34:36;;;;;;;28.87;15.60;;;;;;;;;;10222459;29;20055;-86
2021/12/16 22:39:37;;;;;;;27.17;15.82;;;;;;;;;;10216656;29;20559;-85
2021/12/16 22:44:39;;;;;;;30.58;15.52;;;;;;;;;;10200441;29;20173;-86
2021/12/16 22:49:41;;;;;;;37.05;14.15;;;;;;;;;;10215083;29;20067;-83
2021/12/16 22:54:41;;;;;;;28.58;13.50;;;;;;;;;;10204876;29;20032;-83
2021/12/16 22:59:43;;;;;;;34.60;13.38;;;;;;;;;;10218787;29;20038;-85
2021/12/16 23:04:47;;;;;;;24.23;14.02;;;;;;;;;;10248325;29;20400;-90
2021/12/16 23:09:47;;;;;;;33.53;14.32;;;;;;;;;;10244875;28;20334;-86
2021/12/16 23:14:52;;;;;;;33.20;13.48;;;;;;;;;;10240454;29;20035;-88
2021/12/16 23:25:11;;;;;;;;;;;;;;;;;;10212098;29;20035;-82
2021/12/16 23:30:12;;;;;;;27.70;12.07;;;;;;;;;;10241026;28;20271;-82
2021/12/16 23:35:14;;;;;;;25.65;12.45;;;;;;;;;;10210658;29;20043;-85
2021/12/16 23:40:18;;;;;;;20.88;12.63;;;;;;;;;;10199591;29;20045;-85
2021/12/16 23:55:59;;;;;;;20.13;11.57;;;;;;;;;;10192125;29;20035;-84
